Home   Weather   Germany   Freiberg   Past weeks
Flag for Germany

Past Weather in Freiberg, Saxony, Germany — Yesterday and Last 2 Weeks

Currently: 66 °F. Clear. (Weather station: Dresden-Klotzsche, Germany). See more current weather

Past Weather in Freiberg — Graph

°F

Freiberg Temperature Yesterday

Maximum temperature yesterday: 81 °F (at 4:20 pm)
Minimum temperature yesterday: 55 °F (at 4:20 am)
Average temperature yesterday: 70 °F

High & Low Weather Summary for the Past Weeks

 TemperatureHumidityPressure
High95 °F (Aug 4, 2:20 pm)94% (Jul 27, 3:50 am)30.33 "Hg (Jul 27, 3:50 am)
Low48 °F (Jul 28, 4:50 am)23% (Aug 3, 5:50 pm)29.77 "Hg (Jul 25, 11:20 pm)
Average71 °F52%30.07 "Hg
* Reported Jul 25 11:20 pm — Aug 9 11:20 pm, Freiberg. Weather by CustomWeather, © 2022

Note: Actual official high and low records may vary slightly from our data, if they occured in-between our weather recording intervals... More about our weather records

Freiberg Weather History for the Previous 24 Hours

Scroll right to see more
 ConditionsComfort  
Time TempWeatherWind HumidityBarometerVisibility
11:20 pm
Tue, Aug 9
70 °FClear.3 mph43%30.30 "Hg10 mi
10:50 pm70 °FClear.5 mph43%30.30 "Hg10 mi
10:20 pm70 °FClear.5 mph43%30.30 "Hg10 mi
9:50 pm72 °FClear.3 mph38%30.30 "Hg10 mi
9:20 pm73 °FClear.5 mph36%30.30 "Hg10 mi
8:50 pm73 °FClear.3 mph36%30.30 "Hg10 mi
8:20 pm75 °FPassing clouds.5 mph34%30.30 "HgN/A
7:50 pm77 °FPassing clouds.3 mph34%30.30 "HgN/A
7:20 pm77 °FSunny.1 mph32%30.27 "Hg10 mi
6:50 pm77 °FSunny.2 mph32%30.27 "Hg10 mi
6:20 pm77 °FSunny.8 mph32%30.27 "Hg10 mi
5:50 pm81 °FSunny.10 mph26%30.30 "Hg10 mi
5:20 pm79 °FSunny.3 mph30%30.30 "Hg10 mi
4:50 pm81 °FPassing clouds.8 mph26%30.30 "HgN/A
4:20 pm81 °FSunny.3 mph26%30.30 "Hg10 mi
3:20 pm79 °FPassing clouds.7 mph30%30.30 "HgN/A
2:20 pm79 °FPassing clouds.5 mph30%30.30 "HgN/A
1:50 pm77 °FPassing clouds.9 mph30%30.30 "HgN/A
1:20 pm77 °FPassing clouds.6 mph32%30.30 "HgN/A
12:50 pm77 °FPassing clouds.5 mph32%30.33 "HgN/A
12:20 pm77 °FPassing clouds.6 mph32%30.33 "HgN/A
11:50 am79 °FSunny.5 mph30%30.33 "Hg10 mi
11:20 am75 °FSunny.3 mph31%30.33 "Hg10 mi
10:50 am75 °FSunny.3 mph36%30.33 "Hg10 mi
10:20 am73 °FSunny.3 mph38%30.33 "Hg10 mi
9:50 am73 °FSunny.2 mph36%30.33 "Hg10 mi
9:20 am72 °FSunny.2 mph41%30.33 "Hg10 mi
8:50 am66 °FPassing clouds.3 mph49%30.33 "HgN/A
8:20 am64 °FPassing clouds.3 mph52%30.33 "HgN/A
7:50 am59 °FSunny.1 mph63%30.30 "Hg10 mi
7:20 am57 °FSunny.1 mph67%30.30 "Hg10 mi
6:50 am55 °FSunny.2 mph72%30.30 "Hg10 mi
6:20 am55 °FSunny.2 mph72%30.30 "Hg10 mi
5:50 am55 °FSunny.2 mph72%30.30 "Hg10 mi
5:20 am55 °FClear.1 mph72%30.30 "Hg10 mi
4:50 am55 °FClear.2 mph72%30.30 "Hg10 mi
4:20 am55 °FClear.3 mph72%30.27 "Hg10 mi
3:50 am57 °FClear.3 mph63%30.27 "Hg10 mi
3:20 am59 °FClear.2 mph59%30.27 "Hg10 mi
2:50 am61 °FClear.2 mph55%30.27 "Hg10 mi
1:20 am63 °FClear.5 mph52%30.27 "Hg10 mi
12:50 am64 °FClear.6 mph49%30.27 "Hg10 mi
12:20 am66 °FClear.6 mph46%30.27 "Hg10 mi
Weather by CustomWeather, © 2022

See weather overview